createdAt,value
2018-12-27T00:02:14.657Z,23.42
2018-12-27T00:04:42.303Z,25.10
2018-12-27T00:07:10.136Z,25.05
2018-12-27T00:09:37.946Z,27.35
2018-12-27T00:12:05.539Z,26.68
2018-12-27T00:14:33.121Z,29.20
2018-12-27T00:17:00.617Z,27.20
2018-12-27T00:19:28.153Z,28.07
2018-12-27T00:21:55.662Z,28.83
2018-12-27T00:24:23.216Z,29.40
2018-12-27T00:26:50.730Z,31.60
2018-12-27T00:29:18.240Z,30.10
2018-12-27T00:31:45.878Z,30.75
2018-12-27T00:34:13.477Z,30.95
2018-12-27T00:36:41.073Z,31.10
2018-12-27T00:39:08.702Z,30.65
2018-12-27T00:41:36.298Z,32.50
2018-12-27T00:44:03.880Z,31.33
2018-12-27T00:46:31.498Z,32.38
2018-12-27T00:48:59.077Z,30.82
2018-12-27T00:51:26.675Z,31.07
2018-12-27T00:53:54.305Z,30.60
2018-12-27T00:56:21.893Z,32.80
2018-12-27T00:58:49.484Z,32.17
2018-12-27T01:01:17.097Z,30.43
2018-12-27T01:03:44.707Z,33.78
2018-12-27T01:06:12.392Z,33.13
2018-12-27T01:08:40.001Z,32.20
2018-12-27T01:11:07.618Z,31.68
2018-12-27T01:13:35.211Z,31.20
2018-12-27T01:16:02.826Z,33.20
2018-12-27T01:18:30.418Z,30.75
2018-12-27T01:20:58.026Z,31.05
2018-12-27T01:23:25.649Z,30.70
2018-12-27T01:25:53.247Z,28.83
2018-12-27T01:28:20.875Z,30.62
2018-12-27T01:30:48.458Z,26.42
2018-12-27T01:33:18.849Z,26.97
2018-12-27T01:35:45.327Z,24.98
2018-12-27T01:38:14.317Z,24.77
2018-12-27T01:40:41.949Z,28.65
2018-12-27T01:43:09.545Z,26.73
2018-12-27T01:45:37.138Z,26.00
2018-12-27T01:48:04.755Z,25.32
2018-12-27T01:50:32.383Z,24.20
2018-12-27T01:53:00.034Z,23.05
2018-12-27T01:55:27.630Z,23.45
2018-12-27T01:57:55.252Z,23.67
2018-12-27T02:00:22.858Z,22.00
2018-12-27T02:02:50.480Z,23.38
2018-12-27T02:05:18.122Z,22.20
2018-12-27T02:07:45.713Z,23.38
2018-12-27T02:10:13.306Z,21.10
2018-12-27T02:12:40.926Z,21.23
2018-12-27T02:15:08.557Z,23.35
2018-12-27T02:17:36.148Z,20.92
2018-12-27T02:20:03.731Z,21.80
2018-12-27T02:22:31.432Z,21.50
2018-12-27T02:24:59.001Z,20.10
2018-12-27T02:27:26.608Z,22.40
2018-12-27T02:29:54.206Z,22.10
2018-12-27T02:32:21.851Z,22.10
2018-12-27T02:34:49.454Z,21.33
2018-12-27T02:37:17.061Z,19.85
2018-12-27T02:39:44.677Z,20.08
2018-12-27T02:42:12.666Z,20.32
2018-12-27T02:44:40.265Z,19.92
2018-12-27T02:47:07.858Z,19.37
2018-12-27T02:49:35.499Z,19.48
2018-12-27T02:52:03.096Z,22.22
2018-12-27T02:54:30.684Z,18.87
2018-12-27T02:56:58.312Z,20.00
2018-12-27T02:59:25.908Z,19.42
2018-12-27T03:01:53.499Z,18.52
2018-12-27T03:04:21.129Z,20.90
2018-12-27T03:06:48.724Z,20.57
2018-12-27T03:09:16.322Z,21.30
2018-12-27T03:11:43.942Z,17.82
2018-12-27T03:14:11.525Z,18.32
2018-12-27T03:16:39.110Z,17.73
2018-12-27T03:19:06.747Z,18.20
2018-12-27T03:21:34.346Z,19.25
2018-12-27T03:24:01.946Z,18.70
2018-12-27T03:26:29.580Z,19.15
2018-12-27T03:28:57.166Z,15.93
2018-12-27T03:31:24.755Z,16.15
2018-12-27T03:33:52.741Z,16.17
2018-12-27T03:36:20.690Z,16.20
2018-12-27T03:38:48.278Z,16.75
2018-12-27T03:41:15.918Z,16.67
2018-12-27T03:43:43.507Z,15.70
2018-12-27T03:46:11.102Z,15.85
2018-12-27T03:48:38.716Z,13.05
2018-12-27T03:51:06.436Z,13.70
2018-12-27T03:53:34.016Z,13.60
2018-12-27T03:56:01.599Z,13.35
2018-12-27T03:58:29.219Z,13.32
2018-12-27T04:00:56.802Z,13.28
2018-12-27T04:03:24.450Z,11.08
2018-12-27T04:05:52.041Z,10.80
2018-12-27T04:08:19.638Z,10.98
2018-12-27T04:10:47.249Z,11.28
2018-12-27T04:13:14.840Z,11.22
2018-12-27T04:15:42.410Z,13.75
2018-12-27T04:18:09.920Z,12.58
2018-12-27T04:20:37.431Z,12.07
2018-12-27T04:23:04.968Z,13.40
2018-12-27T04:25:32.579Z,12.45
2018-12-27T04:28:00.118Z,12.88
2018-12-27T04:30:27.702Z,14.07
2018-12-27T04:32:55.682Z,12.40
2018-12-27T04:35:23.981Z,12.58
2018-12-27T04:37:51.490Z,14.00
2018-12-27T04:40:19.049Z,14.03
2018-12-27T04:42:46.635Z,12.53
2018-12-27T04:45:14.157Z,13.32
2018-12-27T04:47:41.713Z,13.20
2018-12-27T04:50:09.216Z,13.05
2018-12-27T04:52:36.739Z,12.90
2018-12-27T04:55:04.380Z,12.98
2018-12-27T04:57:31.892Z,14.03
2018-12-27T04:59:59.396Z,13.45
2018-12-27T05:02:26.929Z,13.65
2018-12-27T05:04:54.466Z,11.70
2018-12-27T05:07:22.023Z,11.78
2018-12-27T05:09:49.542Z,13.62
2018-12-27T05:12:17.055Z,12.70
2018-12-27T05:14:44.617Z,12.23
2018-12-27T05:17:12.134Z,12.55
2018-12-27T05:19:39.674Z,12.93
2018-12-27T05:22:07.186Z,13.35
2018-12-27T05:24:34.722Z,12.68
2018-12-27T05:27:02.248Z,13.10
2018-12-27T05:29:29.773Z,11.80
2018-12-27T05:31:57.313Z,12.00
2018-12-27T05:34:26.390Z,13.53
2018-12-27T05:36:54.051Z,13.08
2018-12-27T05:39:21.603Z,12.95
2018-12-27T05:41:49.124Z,12.68
2018-12-27T05:44:16.630Z,12.90
2018-12-27T05:46:44.198Z,13.05
2018-12-27T05:49:11.710Z,12.58
2018-12-27T05:51:39.223Z,11.80
2018-12-27T05:54:06.753Z,14.03
2018-12-27T05:56:34.269Z,10.85
2018-12-27T05:59:01.801Z,13.22
2018-12-27T06:01:29.334Z,12.90
2018-12-27T06:03:56.846Z,12.82
2018-12-27T06:06:24.386Z,12.53
2018-12-27T06:08:51.901Z,10.93
2018-12-27T06:11:19.471Z,12.20
2018-12-27T06:13:46.985Z,12.28
2018-12-27T06:16:14.501Z,13.72
2018-12-27T06:18:42.064Z,11.65
2018-12-27T06:21:09.577Z,12.63
2018-12-27T06:23:37.086Z,12.95
2018-12-27T06:26:04.735Z,13.18
2018-12-27T06:28:32.250Z,14.07
2018-12-27T06:30:59.762Z,12.00
2018-12-27T06:33:27.321Z,11.38
2018-12-27T06:35:54.887Z,11.70
2018-12-27T06:38:22.402Z,11.93
2018-12-27T06:40:49.919Z,12.03
2018-12-27T06:43:17.466Z,11.88
2018-12-27T06:45:44.982Z,11.08
2018-12-27T06:48:12.510Z,13.00
2018-12-27T06:50:40.048Z,11.65
2018-12-27T06:53:07.566Z,10.95
2018-12-27T06:55:35.121Z,10.63
2018-12-27T06:58:02.626Z,17.60
2018-12-27T07:00:30.164Z,12.10
2018-12-27T07:02:57.706Z,11.60
2018-12-27T07:05:25.224Z,11.75
2018-12-27T07:07:52.774Z,12.28
2018-12-27T07:10:20.287Z,12.05
2018-12-27T07:12:47.841Z,11.73
2018-12-27T07:15:15.358Z,12.45
2018-12-27T07:17:42.874Z,12.98
2018-12-27T07:20:10.479Z,12.33
2018-12-27T07:22:38.006Z,11.88
2018-12-27T07:25:05.559Z,10.75
2018-12-27T07:27:33.077Z,12.03
2018-12-27T07:30:00.585Z,12.20
2018-12-27T07:32:28.147Z,11.65
2018-12-27T07:34:56.689Z,11.68
2018-12-27T07:37:24.852Z,11.45
2018-12-27T07:39:52.389Z,11.68
2018-12-27T07:42:20.604Z,12.20
2018-12-27T07:44:48.130Z,12.60
2018-12-27T07:47:15.656Z,12.55
2018-12-27T07:49:43.196Z,13.03
2018-12-27T07:52:10.746Z,12.53
2018-12-27T07:54:38.277Z,12.63
2018-12-27T07:57:05.797Z,13.35
2018-12-27T07:59:33.369Z,12.53
2018-12-27T08:02:00.908Z,12.40
2018-12-27T08:04:28.424Z,11.53
2018-12-27T08:06:56.033Z,12.73
2018-12-27T08:09:23.621Z,12.50
2018-12-27T08:11:51.156Z,12.98
2018-12-27T08:14:18.805Z,12.55
2018-12-27T08:16:46.314Z,13.98
2018-12-27T08:19:13.826Z,13.22
2018-12-27T08:21:41.367Z,12.80
2018-12-27T08:24:08.914Z,13.38
2018-12-27T08:26:36.425Z,14.38
2018-12-27T08:29:03.956Z,20.50
2018-12-27T08:31:31.514Z,17.45
2018-12-27T08:33:59.035Z,16.35
2018-12-27T08:36:26.552Z,23.92
2018-12-27T08:38:54.095Z,17.25
2018-12-27T08:41:21.661Z,15.53
2018-12-27T08:43:49.190Z,19.70
2018-12-27T08:46:16.718Z,16.75
2018-12-27T08:48:44.274Z,16.73
2018-12-27T08:51:11.798Z,14.03
2018-12-27T08:53:39.323Z,14.87
2018-12-27T08:56:06.872Z,15.03
2018-12-27T08:58:34.390Z,14.28
2018-12-27T12:02:42.367Z,9.05
2018-12-27T12:05:09.884Z,10.13
2018-12-27T12:07:37.379Z,8.53
2018-12-27T12:10:05.968Z,9.98
2018-12-27T12:12:33.476Z,9.60
2018-12-27T12:15:00.971Z,9.70
2018-12-27T12:17:28.494Z,11.10
2018-12-27T12:19:55.996Z,10.70
2018-12-27T12:22:23.483Z,9.40
2018-12-27T12:24:51.008Z,9.80
2018-12-27T12:27:18.518Z,10.65
2018-12-27T12:29:46.026Z,10.20
2018-12-27T12:32:13.536Z,10.50
2018-12-27T12:34:41.055Z,9.70
2018-12-27T12:37:13.947Z,12.28
2018-12-27T12:39:37.792Z,10.00
2018-12-27T12:42:05.324Z,11.33
2018-12-27T12:44:32.822Z,10.53
2018-12-27T12:47:00.330Z,10.35
2018-12-27T12:49:27.851Z,11.00
2018-12-27T12:51:55.349Z,9.78
2018-12-27T12:54:22.882Z,11.18
2018-12-27T12:56:50.380Z,12.45
2018-12-27T12:59:17.888Z,10.85
2018-12-27T13:01:45.411Z,10.80
2018-12-27T13:04:12.942Z,10.68
2018-12-27T13:06:40.452Z,11.18
2018-12-27T13:09:07.949Z,10.58
2018-12-27T13:11:35.491Z,10.93
2018-12-27T13:14:03.123Z,11.40
2018-12-27T13:16:30.628Z,11.40
2018-12-27T13:18:58.123Z,10.88
2018-12-27T13:21:25.659Z,10.50
2018-12-27T13:23:53.159Z,11.63
2018-12-27T13:26:20.673Z,10.50
2018-12-27T13:28:48.203Z,9.80
2018-12-27T13:31:15.740Z,10.88
2018-12-27T13:33:43.244Z,11.57
2018-12-27T13:36:10.901Z,10.40
2018-12-27T13:38:38.411Z,11.65
2018-12-27T13:41:05.910Z,13.13
2018-12-27T13:43:33.454Z,11.28
2018-12-27T13:46:00.962Z,12.70
2018-12-27T13:48:28.454Z,12.80
2018-12-27T13:50:56.004Z,13.00
2018-12-27T13:53:23.501Z,12.20
2018-12-27T13:55:50.992Z,12.60
2018-12-27T13:58:18.521Z,13.68
2018-12-27T14:00:46.021Z,12.07
2018-12-27T14:03:13.559Z,11.10
2018-12-27T14:05:41.063Z,12.80
2018-12-27T14:08:08.564Z,12.95
2018-12-27T14:10:36.078Z,12.28
2018-12-27T14:13:03.591Z,13.43
2018-12-27T14:15:31.099Z,13.35
2018-12-27T14:17:58.668Z,12.20
2018-12-27T14:20:26.172Z,12.88
2018-12-27T14:22:53.667Z,13.40
2018-12-27T14:25:21.194Z,12.75
2018-12-27T14:27:48.695Z,12.95
2018-12-27T14:30:16.200Z,12.73
2018-12-27T14:32:43.738Z,12.30
2018-12-27T14:35:11.239Z,12.28
2018-12-27T14:37:38.743Z,12.58
2018-12-27T14:40:07.575Z,13.15
2018-12-27T14:42:35.282Z,12.07
2018-12-27T14:45:02.787Z,11.20
2018-12-27T14:47:30.304Z,11.30
2018-12-27T14:49:57.803Z,10.53
2018-12-27T14:52:25.295Z,12.68
2018-12-27T14:54:52.851Z,10.55
2018-12-27T14:57:20.347Z,9.40
2018-12-27T14:59:47.849Z,10.98
2018-12-27T15:02:15.386Z,10.90
2018-12-27T15:04:42.895Z,10.45
2018-12-27T15:07:10.392Z,11.03
2018-12-27T15:09:37.924Z,11.00
2018-12-27T15:12:05.428Z,10.80
2018-12-27T15:14:32.959Z,10.48
2018-12-27T15:17:00.506Z,11.00
2018-12-27T15:19:28.003Z,10.53
2018-12-27T15:21:55.532Z,9.50
2018-12-27T15:24:23.044Z,10.38
2018-12-27T15:26:50.575Z,10.53
2018-12-27T15:29:18.077Z,10.48
2018-12-27T15:31:45.585Z,10.90
2018-12-27T15:34:13.103Z,11.25
2018-12-27T15:36:40.627Z,9.85
2018-12-27T15:39:08.228Z,10.88
2018-12-27T15:41:35.727Z,10.65
2018-12-27T15:44:03.263Z,10.65
2018-12-27T15:46:30.766Z,11.03
2018-12-27T15:48:58.276Z,10.10
2018-12-27T15:51:25.811Z,9.83
2018-12-27T15:53:53.300Z,10.15
2018-12-27T15:56:20.819Z,9.70
2018-12-27T15:58:48.320Z,10.10
2018-12-27T16:01:15.839Z,9.55
2018-12-27T16:03:43.334Z,9.43
2018-12-27T16:06:10.835Z,9.48
2018-12-27T16:08:38.375Z,10.48
2018-12-27T16:11:05.885Z,10.45
2018-12-27T16:13:33.379Z,9.20
2018-12-27T16:16:00.888Z,9.55
2018-12-27T16:18:28.521Z,9.18
2018-12-27T16:20:56.012Z,10.18
2018-12-27T16:23:23.496Z,9.38
2018-12-27T16:25:51.064Z,10.08
2018-12-27T16:28:18.558Z,10.13
2018-12-27T16:30:46.060Z,10.23
2018-12-27T16:33:13.638Z,8.63
2018-12-27T16:35:41.100Z,8.35
2018-12-27T16:38:08.600Z,9.60
2018-12-27T16:40:36.081Z,9.13
2018-12-27T16:43:03.640Z,9.98
2018-12-27T16:45:31.128Z,8.65
2018-12-27T16:47:58.619Z,9.03
2018-12-27T16:50:26.131Z,8.90
2018-12-27T16:52:53.632Z,8.80
2018-12-27T16:55:21.162Z,10.18
2018-12-27T16:57:48.670Z,8.40
2018-12-27T17:00:16.198Z,9.68
2018-12-27T17:02:43.694Z,9.08
2018-12-27T17:05:11.187Z,9.60
2018-12-27T17:07:38.703Z,9.35
2018-12-27T17:10:06.367Z,9.30
2018-12-27T17:12:33.931Z,9.50
2018-12-27T17:15:01.447Z,9.03
2018-12-27T17:17:28.958Z,8.50
2018-12-27T17:19:56.461Z,8.93
2018-12-27T17:22:23.978Z,8.80
2018-12-27T17:24:51.463Z,8.75
2018-12-27T17:27:18.964Z,9.13
2018-12-27T17:29:46.510Z,10.10
2018-12-27T17:32:14.003Z,9.35
2018-12-27T17:34:41.504Z,8.95
2018-12-27T17:37:09.024Z,8.88
2018-12-27T17:39:36.519Z,9.80
2018-12-27T17:42:04.059Z,10.18
2018-12-27T17:44:31.559Z,8.93
2018-12-27T17:46:59.056Z,9.33
2018-12-27T17:49:26.571Z,9.13
2018-12-27T17:51:54.068Z,8.73
2018-12-27T17:54:21.586Z,8.23
2018-12-27T17:56:49.076Z,9.20
2018-12-27T17:59:16.585Z,8.35
2018-12-27T18:01:44.074Z,9.15
2018-12-27T18:04:11.599Z,9.20
2018-12-27T18:06:39.142Z,9.00
2018-12-27T18:09:06.635Z,8.20
2018-12-27T18:11:34.123Z,7.92
2018-12-27T18:14:01.637Z,8.88
2018-12-27T18:16:29.132Z,8.95
2018-12-27T18:18:56.639Z,8.58
2018-12-27T18:21:24.147Z,9.58
2018-12-27T18:23:51.676Z,9.03
2018-12-27T18:26:19.175Z,9.23
2018-12-27T18:28:46.660Z,9.35
2018-12-27T18:31:14.203Z,9.18
2018-12-27T18:33:41.692Z,8.23
2018-12-27T18:36:09.193Z,9.43
2018-12-27T18:38:36.706Z,8.95
2018-12-27T18:41:04.197Z,8.50
2018-12-27T18:43:31.723Z,8.10
2018-12-27T18:45:59.223Z,8.58
2018-12-27T18:48:26.719Z,7.80
2018-12-27T18:50:54.262Z,8.18
2018-12-27T18:53:21.749Z,8.60
2018-12-27T18:55:49.237Z,7.70
2018-12-27T18:58:16.748Z,7.90
2018-12-27T19:00:44.271Z,10.03
2018-12-27T19:03:11.792Z,8.85
2018-12-27T19:05:39.283Z,8.85
2018-12-27T19:08:06.794Z,9.10
2018-12-27T19:10:34.287Z,8.30
2018-12-27T19:13:03.352Z,8.13
2018-12-27T19:15:31.608Z,8.30
2018-12-27T19:17:59.243Z,8.75
2018-12-27T19:20:26.736Z,8.30
2018-12-27T19:22:58.721Z,8.33
2018-12-27T19:25:26.239Z,10.88
2018-12-27T19:27:53.753Z,8.05
2018-12-27T19:30:21.266Z,8.70
2018-12-27T19:32:48.762Z,9.53
2018-12-27T19:35:33.050Z,8.68
2018-12-27T19:37:56.099Z,8.65
2018-12-27T19:40:23.645Z,9.10
2018-12-27T19:42:51.167Z,8.40
2018-12-27T19:45:18.684Z,9.13
2018-12-27T19:47:46.178Z,9.75
2018-12-27T19:50:13.687Z,9.55
2018-12-27T19:52:41.183Z,9.60
2018-12-27T19:55:08.701Z,9.90
2018-12-27T19:57:36.206Z,10.50
2018-12-27T20:00:03.927Z,10.15
2018-12-27T20:02:31.435Z,9.98
2018-12-27T20:05:06.773Z,9.08
2018-12-27T20:07:34.285Z,10.70
2018-12-27T20:10:01.780Z,10.82
2018-12-27T20:12:29.283Z,9.80
2018-12-27T20:14:56.807Z,10.18
2018-12-27T20:17:24.319Z,10.75
2018-12-27T20:19:51.868Z,12.28
2018-12-27T20:22:19.403Z,10.13
2018-12-27T20:24:46.910Z,10.55
2018-12-27T20:27:14.429Z,11.10
2018-12-27T20:29:41.927Z,10.80
2018-12-27T20:32:09.455Z,11.12
2018-12-27T20:34:36.963Z,11.00
2018-12-27T20:37:04.505Z,10.63
2018-12-27T20:39:32.019Z,12.23
2018-12-27T20:41:59.524Z,11.03
2018-12-27T20:44:27.055Z,11.40
2018-12-27T20:46:54.560Z,11.90
2018-12-27T20:49:22.057Z,12.78
2018-12-27T20:51:49.587Z,12.10
2018-12-27T20:54:17.174Z,12.10
2018-12-27T20:56:44.731Z,11.57
2018-12-27T20:59:12.221Z,12.95
2018-12-27T21:01:39.864Z,12.88
2018-12-27T21:04:07.834Z,12.47
2018-12-27T21:06:35.396Z,11.57
2018-12-27T21:09:02.928Z,14.35
2018-12-27T21:11:30.569Z,12.07
2018-12-27T21:13:58.487Z,12.20
2018-12-27T21:16:25.991Z,13.40
2018-12-27T21:18:53.679Z,13.10
2018-12-27T21:21:21.180Z,12.15
2018-12-27T21:23:51.129Z,12.30
2018-12-27T21:26:18.645Z,12.37
2018-12-27T21:28:49.321Z,13.30
2018-12-27T21:31:21.683Z,12.37
2018-12-27T21:33:49.375Z,13.03
2018-12-27T21:36:21.268Z,12.28
2018-12-27T21:38:53.865Z,12.00
2018-12-27T21:41:22.215Z,13.20
2018-12-27T21:43:52.463Z,14.00
2018-12-27T21:46:22.346Z,12.53
2018-12-27T21:48:50.159Z,13.65
2018-12-27T21:51:20.895Z,12.95
2018-12-27T21:53:49.403Z,13.15
2018-12-27T21:56:17.812Z,13.10
2018-12-27T21:58:47.711Z,13.53
2018-12-27T22:01:15.356Z,12.05
2018-12-27T22:03:43.683Z,13.13
2018-12-27T22:06:12.641Z,13.75
2018-12-27T22:08:40.763Z,13.50
2018-12-27T22:11:09.037Z,13.43
2018-12-27T22:13:41.468Z,13.85
2018-12-27T22:16:11.578Z,14.38
2018-12-27T22:18:41.535Z,15.95
2018-12-27T22:21:13.439Z,14.90
2018-12-27T22:23:41.941Z,14.75
2018-12-27T22:26:09.896Z,14.00
2018-12-27T22:28:38.316Z,15.00
2018-12-27T22:31:08.145Z,15.55
2018-12-27T22:33:38.521Z,14.20
2018-12-27T22:36:07.218Z,15.00
2018-12-27T22:38:39.575Z,15.13
2018-12-27T22:41:08.597Z,15.38
2018-12-27T22:43:39.152Z,15.48
2018-12-27T22:46:06.937Z,14.80
2018-12-27T22:48:35.802Z,15.50
2018-12-27T22:51:04.234Z,14.63
2018-12-27T22:53:42.298Z,16.40
2018-12-27T22:56:10.318Z,15.55
2018-12-27T22:58:40.441Z,15.43
2018-12-27T23:01:10.198Z,16.40
2018-12-27T23:03:39.781Z,16.65
2018-12-27T23:06:10.417Z,16.97
2018-12-27T23:08:43.140Z,16.05
2018-12-27T23:11:11.230Z,16.77
2018-12-27T23:13:40.510Z,17.25
2018-12-27T23:16:08.933Z,18.05
2018-12-27T23:18:37.704Z,17.23
2018-12-27T23:21:06.466Z,16.45
2018-12-27T23:23:34.662Z,17.35
2018-12-27T23:26:03.184Z,16.62
2018-12-27T23:28:32.893Z,17.48
2018-12-27T23:31:01.714Z,16.95
2018-12-27T23:33:29.811Z,17.98
2018-12-27T23:35:58.211Z,16.97
2018-12-27T23:38:26.328Z,17.55
2018-12-27T23:40:54.951Z,17.30
2018-12-27T23:43:24.731Z,17.17
2018-12-27T23:45:55.395Z,16.77
2018-12-27T23:48:24.501Z,18.52
2018-12-27T23:50:53.419Z,16.50
2018-12-27T23:53:22.095Z,17.10
2018-12-27T23:55:50.319Z,17.35
2018-12-27T23:58:17.852Z,17.35
